Startpagina
METAR-TAF:

METAR-TAF

Vliegvelden :

Sunan International Airport

Pyongyang, Noord-Korea

breedte: 39-02N, lengte: 125-47E, hoogte: 36 m

METAR: ontbreekt

Tijdstip: 08:29 (23:59 UTC)

Verwachting

Dit bericht is 13 uur en het 9 minuten geleden gemaakt, om 10:50 UTC
Verwachting geldig van 17 om 12 UTC tot 18 om 12 UTC
Wind 6 kt uit het noordwesten
Zicht 10 km of meer
geen wolken onder 1500 m en geen cumulonimbus
Tijdelijke
van 17 om 14 UTC tot 17 om 24 UTC
Zicht: 4000 m
nevel

TAF: ZKPY 171050Z 1712/1812 31003MPS CAVOK TX28/1806Z TN17/1721Z TEMPO 1714/1724 4000 BR

Waarnemingen en weersverwachtingen van meer dan 4000 vliegvelden (METAR en TAF).

De beschikbare stations zijn de gele en rode punten op de kaart.

Ga met uw muis naar het station om de naam te zien.

Klik dan om waarnemingen en weersverwachtingen te zien.

kaart wijzigen: klik op de groene knoppen met een zwart kruis om in te zoomen, op de groene knop met een streepje om uit te zoomen of op de groene pijlen voor aangrenzende kaarten.


METAR-TAF: